Time;durP1;ratioP1;P1;durP2;ratioP2;P2;SDS_P1;SDS_P2;PMS_P1;PMS_P2;Temp;Humidity;BMP_temperature;BMP_pressure;BME280_temperature;BME280_humidity;BME280_pressure;Samples;Min_cycle;Max_cycle;Signal;HPM_P1;HPM_P2
2022/04/29 00:00:18;;;;;;;21.65;11.38;;;;;;;6.62;100.00;100806.75;5031300;28;20368;-54
2022/04/29 00:03:03;;;;;;;19.48;9.30;;;;;;;6.62;100.00;100807.63;5027149;28;20033;-56
2022/04/29 00:05:48;;;;;;;16.00;8.27;;;;;;;6.55;100.00;100806.72;5028619;28;20037;-55
2022/04/29 00:08:32;;;;;;;15.60;8.25;;;;;;;6.54;100.00;100809.31;5023838;28;20080;-55
2022/04/29 00:11:17;;;;;;;21.23;10.93;;;;;;;6.50;100.00;100807.53;5024104;28;20053;-55
2022/04/29 00:14:01;;;;;;;18.98;10.32;;;;;;;6.33;100.00;100795.28;5025717;28;20103;-55
2022/04/29 00:16:47;;;;;;;20.23;10.15;;;;;;;6.35;100.00;100804.84;5038928;28;20058;-54
2022/04/29 00:19:32;;;;;;;19.45;9.02;;;;;;;6.33;100.00;100812.63;5024402;28;20069;-54
2022/04/29 00:22:17;;;;;;;14.13;7.95;;;;;;;6.27;100.00;100809.97;5032222;28;20400;-54
2022/04/29 00:25:03;;;;;;;12.48;8.27;;;;;;;6.16;100.00;100798.59;5029439;28;20046;-54
2022/04/29 00:27:47;;;;;;;13.50;8.27;;;;;;;6.17;100.00;100811.63;5032236;28;20073;-54
2022/04/29 00:30:33;;;;;;;13.52;7.65;;;;;;;6.14;100.00;100808.97;5032105;28;20049;-55
2022/04/29 00:33:18;;;;;;;12.30;7.38;;;;;;;6.13;100.00;100814.19;5027092;28;20049;-54
2022/04/29 00:36:03;;;;;;;11.88;6.63;;;;;;;6.06;100.00;100810.66;5031668;28;20503;-55
2022/04/29 00:38:47;;;;;;;14.77;7.60;;;;;;;6.01;100.00;100808.03;5045522;28;20053;-52
2022/04/29 00:41:32;;;;;;;12.00;6.95;;;;;;;5.93;100.00;100811.41;5032748;28;20057;-54
2022/04/29 00:44:17;;;;;;;11.60;6.78;;;;;;;5.92;100.00;100812.25;5031981;28;20049;-52
2022/04/29 00:47:02;;;;;;;11.95;6.70;;;;;;;5.90;100.00;100800.94;5032859;28;20044;-54
2022/04/29 00:49:48;;;;;;;10.85;5.82;;;;;;;5.91;100.00;100810.47;5031419;28;20073;-54
2022/04/29 00:52:38;;;;;;;12.70;7.03;;;;;;;5.80;100.00;100811.25;5031477;28;20041;-54
2022/04/29 00:55:23;;;;;;;10.10;6.68;;;;;;;5.83;100.00;100802.59;5032718;28;20049;-55
2022/04/29 00:58:14;;;;;;;10.05;6.32;;;;;;;5.82;100.00;100804.34;5032960;28;20061;-54
2022/04/29 01:01:01;;;;;;;13.05;6.65;;;;;;;5.81;100.00;100796.50;5038456;28;20064;-53
2022/04/29 01:03:46;;;;;;;16.52;6.40;;;;;;;5.81;100.00;100791.31;5030722;28;20055;-54
2022/04/29 01:06:31;;;;;;;13.07;6.32;;;;;;;5.80;100.00;100792.16;5028796;28;20053;-56
2022/04/29 01:09:15;;;;;;;10.98;7.13;;;;;;;5.83;100.00;100789.59;5028352;28;20070;-54
2022/04/29 01:12:01;;;;;;;9.30;6.50;;;;;;;5.79;100.00;100785.25;5022097;28;20049;-53
2022/04/29 01:14:46;;;;;;;11.15;6.35;;;;;;;5.83;100.00;100789.59;5023865;28;20057;-52
2022/04/29 01:17:36;;;;;;;11.23;5.82;;;;;;;5.83;100.00;100793.06;5023248;28;20516;-55
2022/04/29 01:20:26;;;;;;;10.82;6.50;;;;;;;5.84;100.00;100784.41;5029876;28;20045;-54
2022/04/29 01:23:12;;;;;;;9.30;5.97;;;;;;;5.86;100.00;100780.09;5042212;28;20053;-55
2022/04/29 01:25:57;;;;;;;8.50;5.68;;;;;;;5.94;100.00;100780.19;5043638;28;20080;-53
2022/04/29 01:28:45;;;;;;;12.27;6.07;;;;;;;5.97;100.00;100785.44;5027309;28;20055;-55
2022/04/29 01:31:31;;;;;;;8.38;5.60;;;;;;;6.03;100.00;100784.63;5039870;28;20056;-54
2022/04/29 01:34:17;;;;;;;13.40;6.53;;;;;;;6.00;100.00;100782.84;5039465;28;20049;-55
2022/04/29 01:37:03;;;;;;;9.55;6.63;;;;;;;6.11;100.00;100785.56;5026904;28;20555;-55
2022/04/29 01:39:48;;;;;;;8.48;5.72;;;;;;;6.18;100.00;100783.91;5041642;28;20079;-52
2022/04/29 01:42:33;;;;;;;11.90;6.07;;;;;;;6.26;100.00;100784.81;5035391;28;20061;-54
2022/04/29 01:45:18;;;;;;;8.43;5.32;;;;;;;6.28;100.00;100775.31;5032225;28;20041;-55
2022/04/29 01:48:15;;;;;;;9.73;6.28;;;;;;;6.24;100.00;100763.09;5039913;28;20045;-55
2022/04/29 01:51:19;;;;;;;8.00;6.50;;;;;;;6.34;100.00;100772.75;5028121;28;20076;-55
2022/04/29 01:54:10;;;;;;;10.48;5.80;;;;;;;6.31;100.00;100768.38;5032295;28;20306;-55
2022/04/29 01:56:55;;;;;;;9.07;5.78;;;;;;;6.40;100.00;100774.50;5034894;28;20044;-56
2022/04/29 01:59:40;;;;;;;9.02;5.32;;;;;;;6.42;100.00;100770.19;5039150;28;20049;-55
2022/04/29 02:02:59;;;;;;;7.88;5.75;;;;;;;6.42;100.00;100770.19;5026881;28;20088;-55
2022/04/29 02:05:44;;;;;;;9.07;5.97;;;;;;;6.42;100.00;100763.25;5026742;28;20037;-54
2022/04/29 02:08:28;;;;;;;14.00;7.00;;;;;;;6.42;100.00;100765.84;5025998;28;20049;-54
2022/04/29 02:11:13;;;;;;;11.05;6.07;;;;;;;6.42;100.00;100759.78;5038909;28;20699;-54
2022/04/29 02:13:58;;;;;;;9.15;5.40;;;;;;;6.37;100.00;100762.38;5047017;28;20582;-53
2022/04/29 02:16:47;;;;;;;14.07;6.68;;;;;;;6.32;100.00;100764.06;5027484;28;20074;-55
2022/04/29 02:19:32;;;;;;;10.13;6.22;;;;;;;6.29;100.00;100769.22;5032431;28;20507;-53
2022/04/29 02:22:16;;;;;;;11.48;5.60;;;;;;;6.23;100.00;100769.19;5028165;28;20060;-54
2022/04/29 02:25:02;;;;;;;9.60;5.93;;;;;;;6.15;100.00;100769.13;5040768;28;20056;-54
2022/04/29 02:27:47;;;;;;;12.27;6.68;;;;;;;6.11;100.00;100761.25;5035615;28;20053;-56
2022/04/29 02:30:33;;;;;;;9.55;6.63;;;;;;;6.01;100.00;100762.91;5033865;28;20074;-55
2022/04/29 02:33:17;;;;;;;10.73;6.78;;;;;;;5.89;100.00;100760.19;5034275;28;20083;-54
2022/04/29 02:36:04;;;;;;;10.10;5.75;;;;;;;5.86;100.00;100766.25;5028000;28;20049;-55
2022/04/29 02:38:49;;;;;;;12.82;7.10;;;;;;;5.77;100.00;100760.94;5025256;28;20057;-54
2022/04/29 02:41:35;;;;;;;9.63;6.03;;;;;;;5.67;100.00;100770.38;5026692;28;20061;-54
2022/04/29 02:44:20;;;;;;;19.75;9.55;;;;;;;5.68;100.00;100763.44;5038664;28;20033;-53
2022/04/29 02:47:08;;;;;;;13.88;9.20;;;;;;;5.59;100.00;100769.44;5038783;28;20045;-54
2022/04/29 02:49:53;;;;;;;16.95;8.93;;;;;;;5.63;100.00;100755.63;5025111;28;20045;-53
2022/04/29 02:52:38;;;;;;;13.30;8.82;;;;;;;5.62;100.00;100756.44;5024913;28;20491;-54
2022/04/29 02:55:23;;;;;;;13.45;7.82;;;;;;;5.67;100.00;100764.31;5025718;28;20064;-55
2022/04/29 02:58:27;;;;;;;13.15;8.25;;;;;;;5.63;100.00;100760.81;5023686;28;20488;-54
2022/04/29 03:01:12;;;;;;;13.20;7.50;;;;;;;5.59;100.00;100757.31;5039162;28;20103;-53
2022/04/29 03:03:56;;;;;;;11.05;6.30;;;;;;;5.54;100.00;100763.31;5038422;28;20065;-52
2022/04/29 03:06:42;;;;;;;10.30;6.97;;;;;;;5.48;100.00;100752.84;5026666;28;20042;-54
2022/04/29 03:09:26;;;;;;;14.55;8.52;;;;;;;5.45;100.00;100766.69;5009895;28;20583;-54
2022/04/29 03:12:13;;;;;;;9.95;6.35;;;;;;;5.42;100.00;100757.97;5023505;28;20049;-53
2022/04/29 03:15:15;;;;;;;9.93;6.68;;;;;;;5.35;100.00;100763.09;5022946;28;20073;-55
2022/04/29 03:18:20;;;;;;;12.32;7.00;;;;;;;5.29;100.00;100759.56;5023724;28;20103;-53
2022/04/29 03:21:05;;;;;;;9.93;6.03;;;;;;;5.20;100.00;100770.75;5038311;28;20069;-53
2022/04/29 03:23:50;;;;;;;9.50;6.75;;;;;;;5.16;100.00;100767.22;5027530;28;20041;-54
2022/04/29 03:26:35;;;;;;;10.25;6.35;;;;;;;5.15;100.00;100770.66;5025174;28;20052;-54
2022/04/29 03:29:20;;;;;;;12.50;6.82;;;;;;;5.09;100.00;100770.59;5039915;28;20494;-54
2022/04/29 03:32:04;;;;;;;13.85;7.78;;;;;;;5.08;100.00;100767.97;5034313;28;20057;-53
2022/04/29 03:35:06;;;;;;;12.25;7.60;;;;;;;5.04;100.00;100766.22;5033882;28;20488;-53
2022/04/29 03:37:52;;;;;;;10.23;7.13;;;;;;;5.04;100.00;100774.00;5033978;28;20065;-54
2022/04/29 03:40:37;;;;;;;13.27;8.07;;;;;;;4.99;100.00;100770.47;5044326;28;20115;-55
2022/04/29 03:43:22;;;;;;;12.82;7.60;;;;;;;5.03;100.00;100767.03;5040902;28;20210;-53
2022/04/29 03:46:08;;;;;;;13.40;8.15;;;;;;;5.08;100.00;100770.59;5037330;28;20033;-54
2022/04/29 03:52:49;;;;;;;13.85;7.85;;;;;;;5.18;100.00;100774.16;5030464;28;20044;-54
2022/04/29 03:55:35;;;;;;;13.18;8.32;;;;;;;5.25;100.00;100781.16;5041169;28;20071;-54
2022/04/29 03:58:20;;;;;;;14.52;7.60;;;;;;;5.34;100.00;100781.28;5024088;28;20061;-53
2022/04/29 04:01:08;;;;;;;13.15;8.07;;;;;;;5.37;100.00;100789.97;5037536;28;20592;-54
2022/04/29 04:04:05;;;;;;;13.23;8.57;;;;;;;5.43;100.00;100786.59;5022853;28;20045;-54
2022/04/29 04:06:49;;;;;;;13.23;8.02;;;;;;;5.51;100.00;100784.06;5038470;28;20056;-53
2022/04/29 04:09:35;;;;;;;11.95;8.73;;;;;;;5.60;100.00;100789.38;5025192;28;20575;-53
2022/04/29 04:12:24;;;;;;;15.55;9.68;;;;;;;5.69;100.00;100792.06;5047909;28;20053;-53
2022/04/29 04:15:31;;;;;;;14.38;8.82;;;;;;;5.89;100.00;100789.66;5034265;28;20689;-53
2022/04/29 04:18:17;;;;;;;12.57;8.32;;;;;;;6.00;100.00;100793.25;5042108;28;20053;-53
2022/04/29 04:21:01;;;;;;;19.35;10.45;;;;;;;6.20;100.00;100790.84;5024665;28;20037;-54
2022/04/29 04:23:46;;;;;;;12.80;9.43;;;;;;;6.48;100.00;100789.31;5028916;28;20049;-53
2022/04/29 04:26:32;;;;;;;14.75;8.40;;;;;;;7.14;100.00;100788.84;5024653;28;20056;-54
2022/04/29 04:29:19;;;;;;;18.95;8.88;;;;;;;7.64;100.00;100802.06;5023415;28;20121;-54
2022/04/29 04:32:06;;;;;;;17.98;8.88;;;;;;;8.35;100.00;100782.13;5038401;28;20056;-54
2022/04/29 04:34:53;;;;;;;13.63;8.35;;;;;;;8.83;98.31;100796.00;5028101;28;20458;-54
2022/04/29 04:37:37;;;;;;;13.60;8.25;;;;;;;9.19;92.10;100794.16;5036677;28;20065;-54
2022/04/29 04:40:23;;;;;;;14.48;8.75;;;;;;;9.60;86.53;100801.81;5021557;28;20857;-54
2022/04/29 04:43:09;;;;;;;12.75;8.27;;;;;;;10.11;86.48;100791.03;5045038;28;20037;-55
2022/04/29 04:45:56;;;;;;;11.75;7.53;;;;;;;11.01;83.80;100794.56;5030187;28;20045;-54
2022/04/29 04:48:58;;;;;;;12.30;7.90;;;;;;;10.85;75.04;100793.88;5030412;28;20053;-54
2022/04/29 04:52:03;;;;;;;17.73;8.05;;;;;;;10.88;72.67;100791.22;5027956;28;20480;-55
2022/04/29 04:54:49;;;;;;;15.73;7.25;;;;;;;11.45;73.36;100803.69;5024949;28;20041;-55
2022/04/29 04:57:33;;;;;;;17.10;7.72;;;;;;;12.29;70.53;100801.63;5021448;28;20056;-55
2022/04/29 05:00:18;;;;;;;10.35;7.05;;;;;;;12.91;69.28;100790.88;5021244;28;20053;-53
2022/04/29 05:03:25;;;;;;;15.32;7.63;;;;;;;13.29;61.15;100805.91;5020959;28;20057;-55
2022/04/29 05:06:42;;;;;;;10.18;6.63;;;;;;;13.87;59.64;100804.66;5020984;28;20507;-54
2022/04/29 05:09:26;;;;;;;17.05;7.30;;;;;;;13.90;58.94;100814.25;5020334;28;20063;-56
2022/04/29 05:12:11;;;;;;;10.15;6.47;;;;;;;14.85;60.55;100811.94;5023682;28;20111;-55
2022/04/29 05:15:16;;;;;;;12.13;6.68;;;;;;;15.12;56.33;100820.88;5000972;28;20053;-55
2022/04/29 05:18:01;;;;;;;11.32;6.05;;;;;;;15.61;54.37;100830.03;5014919;28;20057;-56
2022/04/29 05:21:09;;;;;;;10.25;5.55;;;;;;;15.73;53.44;100824.44;5021479;28;20092;-54
2022/04/29 05:23:54;;;;;;;7.78;5.55;;;;;;;16.55;51.20;100826.19;5020754;28;20107;-55
2022/04/29 05:26:57;;;;;;;;;;;;;;;16.68;47.84;100828.44;5024076;28;20559;-55
2022/04/29 05:30:00;;;;;;;8.70;4.90;;;;;;;16.54;48.47;100820.94;5033127;28;20081;-54
2022/04/29 05:33:07;;;;;;;6.03;4.70;;;;;;;16.47;46.88;100824.72;5031630;28;20674;-56
2022/04/29 05:36:11;;;;;;;7.50;4.72;;;;;;;17.04;48.46;100818.38;5024635;28;20041;-56
2022/04/29 05:42:19;;;;;;;9.15;4.78;;;;;;;17.15;47.16;100829.41;5019903;28;20097;-56
2022/04/29 05:45:04;;;;;;;9.00;4.75;;;;;;;17.31;46.13;100821.78;5026331;28;20050;-55
2022/04/29 05:47:49;;;;;;;8.90;3.80;;;;;;;17.64;45.13;100827.59;5015595;28;20049;-55
2022/04/29 05:50:33;;;;;;;6.07;4.20;;;;;;;17.92;43.85;100823.94;5005928;28;20963;-56
2022/04/29 05:53:20;;;;;;;6.93;4.03;;;;;;;17.73;43.89;100829.91;5006887;28;20407;-55
2022/04/29 05:56:14;;;;;;;6.75;3.13;;;;;;;18.36;42.61;100834.50;4999564;28;20146;-55
2022/04/29 05:58:58;;;;;;;5.40;3.40;;;;;;;18.20;41.72;100831.66;5001164;28;20141;-55
2022/04/29 06:02:18;;;;;;;4.30;3.28;;;;;;;18.50;41.07;100837.47;4961224;28;20101;-56
2022/04/29 06:05:13;;;;;;;5.45;3.00;;;;;;;18.56;40.89;100841.66;4987281;28;20042;-56
2022/04/29 06:08:00;;;;;;;5.40;3.42;;;;;;;18.77;39.77;100835.47;4990256;28;20050;-56
2022/04/29 06:10:54;;;;;;;4.25;2.85;;;;;;;18.99;41.09;100835.41;4991314;28;20053;-55
2022/04/29 06:13:39;;;;;;;6.10;3.22;;;;;;;19.24;39.38;100831.66;5005223;28;20432;-56
2022/04/29 06:16:43;;;;;;;3.63;2.60;;;;;;;19.30;36.67;100842.00;5005976;28;20195;-55
2022/04/29 06:19:47;;;;;;;3.67;2.80;;;;;;;18.72;36.69;100844.50;5014013;28;20056;-56
2022/04/29 06:23:10;;;;;;;4.60;2.70;;;;;;;19.05;37.46;100844.91;4943179;29;20139;-55
2022/04/29 06:25:55;;;;;;;6.35;3.15;;;;;;;19.15;36.93;100840.91;4940741;29;20828;-55
2022/04/29 06:28:40;;;;;;;5.00;3.15;;;;;;;18.72;37.92;100844.50;4997171;28;20053;-55
2022/04/29 06:31:24;;;;;;;3.92;2.50;;;;;;;19.09;38.02;100852.66;5012101;28;20156;-55
2022/04/29 06:34:09;;;;;;;3.80;2.30;;;;;;;19.14;35.49;100841.81;5010925;28;20126;-56
2022/04/29 06:36:54;;;;;;;4.32;2.60;;;;;;;19.14;34.97;100841.81;5008438;28;20149;-55
2022/04/29 06:39:41;;;;;;;5.35;2.08;;;;;;;19.48;35.08;100843.84;4999151;28;20057;-55
2022/04/29 06:42:46;;;;;;;5.25;2.47;;;;;;;19.54;34.02;100845.34;5014547;28;20149;-55
2022/04/29 06:45:50;;;;;;;3.55;2.63;;;;;;;19.05;34.73;100848.41;5015163;28;20103;-56
2022/04/29 06:48:55;;;;;;;2.65;2.45;;;;;;;18.91;32.54;100864.06;5013577;28;20049;-56
2022/04/29 06:51:58;;;;;;;5.68;2.95;;;;;;;19.07;33.51;100858.97;5014170;28;20116;-55
2022/04/29 06:54:54;;;;;;;5.88;2.72;;;;;;;19.24;32.91;100852.91;5022618;28;20484;-55
2022/04/29 06:57:39;;;;;;;7.25;2.78;;;;;;;19.05;32.49;100859.03;5027497;28;20500;-56
2022/04/29 07:00:24;;;;;;;4.45;2.42;;;;;;;19.17;33.08;100844.34;5026715;28;20049;-55
2022/04/29 07:03:10;;;;;;;6.10;2.60;;;;;;;19.68;33.54;100855.38;5041461;28;20050;-56
2022/04/29 07:05:56;;;;;;;4.90;2.60;;;;;;;19.21;33.77;100863.69;5032862;28;20590;-56
2022/04/29 07:08:41;;;;;;;4.53;2.75;;;;;;;19.38;33.48;100855.81;5028280;28;20049;-55
2022/04/29 07:11:44;;;;;;;;;;;;;;;19.43;33.20;100859.09;5026438;28;20468;-56
2022/04/29 07:14:50;;;;;;;6.78;2.63;;;;;;;18.79;32.93;100864.63;5025748;28;19929;-56
2022/04/29 07:17:35;;;;;;;3.72;2.38;;;;;;;19.51;33.05;100861.44;5038156;28;20069;-57
2022/04/29 07:20:23;;;;;;;2.75;2.38;;;;;;;19.67;33.07;100865.16;5022677;28;20049;-56
2022/04/29 07:23:07;;;;;;;4.60;2.50;;;;;;;19.30;32.96;100852.63;5024216;28;20340;-56
2022/04/29 07:25:52;;;;;;;4.10;2.00;;;;;;;18.96;32.61;100858.56;5038881;28;20049;-55
2022/04/29 07:28:36;;;;;;;2.88;2.42;;;;;;;19.47;32.96;100862.53;5025353;28;20065;-55
2022/04/29 07:31:21;;;;;;;1.95;1.70;;;;;;;20.20;32.96;100861.75;5024004;28;20068;-53
2022/04/29 07:41:44;;;;;;;5.95;3.90;;;;;;;18.59;33.96;100878.66;5027565;28;20060;-54
2022/04/29 07:44:29;;;;;;;3.60;2.60;;;;;;;19.63;33.00;100866.19;5024322;28;20042;-54
2022/04/29 07:47:16;;;;;;;4.78;2.45;;;;;;;19.43;34.49;100860.91;5027773;28;20049;-54
2022/04/29 07:50:08;;;;;;;4.40;2.30;;;;;;;20.15;33.58;100868.22;5025915;28;20068;-54
2022/04/29 07:52:52;;;;;;;5.13;2.60;;;;;;;19.69;33.90;100865.91;5028738;28;20045;-54
2022/04/29 07:55:37;;;;;;;4.13;2.85;;;;;;;19.87;34.30;100863.34;5027016;28;20090;-54
2022/04/29 07:58:23;;;;;;;8.75;3.20;;;;;;;19.61;34.09;100866.25;5042123;28;20120;-53
2022/04/29 08:01:09;;;;;;;3.00;2.42;;;;;;;19.90;33.96;100856.09;5026759;28;20054;-54
2022/04/29 08:03:58;;;;;;;4.57;2.63;;;;;;;19.45;33.83;100859.06;5040208;28;20388;-54
2022/04/29 08:06:43;;;;;;;7.10;4.15;;;;;;;19.33;34.44;100861.31;5040387;28;20424;-54
2022/04/29 08:09:28;;;;;;;6.70;4.47;;;;;;;18.97;36.02;100865.59;5029589;28;20123;-54
2022/04/29 08:12:13;;;;;;;7.90;2.95;;;;;;;19.19;35.44;100863.72;5039745;28;20144;-53
2022/04/29 08:15:18;;;;;;;7.55;3.40;;;;;;;19.36;35.61;100849.69;5030573;28;20496;-54
2022/04/29 08:18:16;;;;;;;4.47;3.03;;;;;;;19.26;34.96;100865.19;5039213;28;20412;-54
2022/04/29 08:21:01;;;;;;;8.05;3.25;;;;;;;19.54;34.79;100856.84;5041118;28;20136;-53
2022/04/29 08:23:45;;;;;;;5.47;3.40;;;;;;;19.60;35.19;100851.25;5024990;28;20045;-54
2022/04/29 08:26:30;;;;;;;5.32;3.05;;;;;;;19.01;36.72;100854.78;5034067;28;20049;-54
2022/04/29 08:29:15;;;;;;;5.03;3.25;;;;;;;19.02;36.68;100845.91;5026706;28;20057;-54
2022/04/29 08:32:01;;;;;;;4.15;2.95;;;;;;;18.82;35.87;100848.56;5026416;28;20057;-54
2022/04/29 08:34:46;;;;;;;3.83;2.60;;;;;;;19.27;35.82;100848.34;5044003;28;20049;-54
2022/04/29 08:37:30;;;;;;;4.72;2.60;;;;;;;19.43;37.22;100843.16;5040628;28;20527;-54
2022/04/29 08:40:16;;;;;;;8.13;3.30;;;;;;;19.42;37.37;100849.44;5032306;28;20029;-55
2022/04/29 08:43:04;;;;;;;7.45;3.55;;;;;;;18.17;37.61;100839.72;5038857;28;20045;-53
2022/04/29 08:45:49;;;;;;;5.75;2.88;;;;;;;18.89;37.31;100840.25;5025855;28;20053;-55
2022/04/29 08:49:10;;;;;;;5.03;3.25;;;;;;;18.57;38.23;100836.28;4964524;28;20070;-53
2022/04/29 08:51:55;;;;;;;7.85;3.00;;;;;;;18.92;38.05;100831.31;5025193;28;20064;-55
2022/04/29 09:00:49;;;;;;;7.70;3.80;;;;;;;18.79;37.85;100830.13;5023835;28;20045;-54
2022/04/29 09:03:34;;;;;;;3.72;2.72;;;;;;;18.74;37.82;100830.28;5030199;28;20401;-55
2022/04/29 09:06:22;;;;;;;4.90;2.75;;;;;;;18.96;38.74;100826.72;5025295;28;20388;-55
2022/04/29 09:09:09;;;;;;;5.65;4.03;;;;;;;18.25;37.79;100829.66;5022257;28;20044;-55
2022/04/29 09:12:13;;;;;;;7.47;3.97;;;;;;;18.29;38.68;100820.63;5024725;28;20172;-55
2022/04/29 09:15:14;;;;;;;8.27;3.28;;;;;;;18.22;38.53;100827.13;5025323;28;20057;-55
2022/04/29 09:17:59;;;;;;;11.18;4.85;;;;;;;18.05;38.98;100817.22;5026286;28;20061;-54
2022/04/29 09:20:43;;;;;;;8.85;5.03;;;;;;;18.21;39.35;100828.91;5026056;28;20064;-54
2022/04/29 09:23:29;;;;;;;9.25;4.75;;;;;;;18.36;39.10;100819.50;5028017;28;20144;-54
2022/04/29 09:26:36;;;;;;;4.57;2.80;;;;;;;18.77;38.22;100808.94;5023412;28;20061;-54
2022/04/29 09:29:41;;;;;;;5.43;3.83;;;;;;;18.45;38.85;100813.78;5026151;28;20049;-56
2022/04/29 09:32:49;;;;;;;4.53;2.88;;;;;;;18.81;37.25;100810.50;5026207;28;20049;-55
2022/04/29 09:36:22;;;;;;;5.47;2.78;;;;;;;18.96;38.21;100809.00;4991715;28;20415;-54
2022/04/29 09:42:10;;;;;;;3.90;2.67;;;;;;;19.59;37.57;100808.78;5026245;28;20053;-55
2022/04/29 09:44:54;;;;;;;5.72;2.20;;;;;;;19.39;35.92;100812.38;5027764;28;20061;-54
2022/04/29 09:47:39;;;;;;;5.57;2.10;;;;;;;19.21;36.69;100805.25;5031104;28;20053;-55
2022/04/29 09:50:49;;;;;;;5.32;2.70;;;;;;;18.85;36.31;100805.97;5027109;28;20048;-54
2022/04/29 09:53:34;;;;;;;5.55;2.75;;;;;;;19.18;36.37;100789.47;5033868;28;20050;-53
2022/04/29 09:56:19;;;;;;;6.95;4.38;;;;;;;19.34;36.27;100807.28;5032466;28;20045;-53
2022/04/29 09:59:05;;;;;;;4.72;2.60;;;;;;;19.93;37.46;100799.28;5035821;28;20059;-54
2022/04/29 10:01:50;;;;;;;3.42;2.03;;;;;;;20.10;35.75;100801.09;5034527;28;20083;-54
2022/04/29 10:04:37;;;;;;;4.55;2.00;;;;;;;19.57;33.81;100802.72;5034414;28;20140;-55
2022/04/29 10:07:23;;;;;;;3.67;2.33;;;;;;;19.66;36.28;100804.09;5031000;28;20053;-53
2022/04/29 10:10:20;;;;;;;3.90;1.98;;;;;;;19.89;35.48;100797.66;5029563;28;20053;-54
2022/04/29 10:13:07;;;;;;;4.00;2.83;;;;;;;19.92;35.26;100798.41;5030900;28;20049;-53
2022/04/29 10:16:12;;;;;;;6.82;2.92;;;;;;;19.93;35.96;100785.97;5030584;28;20033;-54
2022/04/29 10:22:33;;;;;;;3.17;2.65;;;;;;;19.98;35.39;100775.97;5034334;28;20055;-53
2022/04/29 10:25:20;;;;;;;6.22;3.00;;;;;;;19.85;34.06;100789.84;5034466;28;20056;-54
2022/04/29 10:28:07;;;;;;;2.97;2.17;;;;;;;19.83;35.29;100772.28;5034114;28;20048;-55
2022/04/29 10:31:06;;;;;;;4.68;2.90;;;;;;;19.64;36.40;100777.59;5034754;28;20049;-55
2022/04/29 10:33:50;;;;;;;3.38;2.40;;;;;;;20.02;34.17;100777.56;5033453;28;20053;-55
2022/04/29 10:36:45;;;;;;;4.28;2.40;;;;;;;19.80;32.99;100775.94;5046181;28;20061;-54
2022/04/29 10:39:29;;;;;;;4.55;3.05;;;;;;;20.24;34.24;100783.50;5034219;28;20053;-54
2022/04/29 10:42:18;;;;;;;8.77;6.72;;;;;;;20.39;33.37;100779.22;5031578;28;20398;-54
2022/04/29 10:45:02;;;;;;;8.20;5.05;;;;;;;20.11;33.35;100773.56;5033275;28;20041;-55
2022/04/29 10:47:48;;;;;;;2.72;2.03;;;;;;;19.89;33.46;100771.97;5033951;28;20045;-55
2022/04/29 10:50:45;;;;;;;4.20;2.13;;;;;;;20.54;33.64;100767.84;5027557;28;20081;-55
2022/04/29 10:53:58;;;;;;;3.85;2.28;;;;;;;19.96;34.44;100768.09;5032871;28;20053;-54
2022/04/29 10:57:07;;;;;;;3.17;2.08;;;;;;;20.06;34.80;100765.84;5009363;28;20057;-54
2022/04/29 10:59:56;;;;;;;5.38;3.45;;;;;;;20.24;34.68;100764.91;5033445;28;20060;-55
2022/04/29 11:02:41;;;;;;;9.95;4.30;;;;;;;20.14;33.92;100766.28;5035547;28;20655;-54
2022/04/29 11:05:37;;;;;;;3.05;1.65;;;;;;;20.16;33.47;100761.78;5034051;28;20432;-54
2022/04/29 11:08:29;;;;;;;4.72;2.45;;;;;;;20.14;33.16;100766.28;5034394;28;20053;-53
2022/04/29 11:11:13;;;;;;;2.25;1.85;;;;;;;20.09;32.74;100763.03;5035287;28;20056;-54
2022/04/29 11:14:06;;;;;;;5.03;2.17;;;;;;;20.07;33.41;100759.56;5034001;28;20041;-54
2022/04/29 11:17:14;;;;;;;5.80;2.55;;;;;;;20.42;33.62;100741.84;5024801;28;20064;-54
2022/04/29 11:20:12;;;;;;;4.78;3.05;;;;;;;20.00;33.85;100743.06;5025850;28;20049;-53
2022/04/29 11:26:02;;;;;;;2.80;1.90;;;;;;;20.54;33.25;100743.06;5037556;28;20485;-54
2022/04/29 11:29:10;;;;;;;5.82;2.25;;;;;;;20.69;32.88;100734.25;5024121;28;20057;-53
2022/04/29 11:32:12;;;;;;;18.80;10.57;;;;;;;20.99;31.44;100730.88;5038793;28;20058;-54
2022/04/29 11:35:04;;;;;;;8.32;3.88;;;;;;;21.02;31.62;100731.59;5024931;28;20049;-53
2022/04/29 11:37:50;;;;;;;4.07;2.85;;;;;;;21.18;32.98;100741.41;5022355;28;20058;-53
2022/04/29 11:40:39;;;;;;;3.67;2.17;;;;;;;20.97;32.31;100732.78;5022315;28;20156;-54
2022/04/29 11:43:27;;;;;;;3.83;2.25;;;;;;;21.37;33.38;100735.97;5023820;28;20056;-53
2022/04/29 11:46:12;;;;;;;3.10;1.88;;;;;;;21.38;31.71;100729.69;5025439;28;20045;-53
2022/04/29 11:49:00;;;;;;;3.75;1.45;;;;;;;20.48;32.34;100728.22;5035715;28;20064;-53
2022/04/29 11:51:45;;;;;;;4.15;1.60;;;;;;;19.95;32.55;100722.94;5027264;28;20162;-53
2022/04/29 11:54:29;;;;;;;4.10;1.52;;;;;;;20.30;32.91;100724.69;5036811;28;20067;-54
2022/04/29 11:57:15;;;;;;;4.65;1.67;;;;;;;20.07;31.62;100728.50;5036176;28;20053;-53
2022/04/29 12:00:01;;;;;;;2.70;1.65;;;;;;;19.68;31.42;100725.16;5021678;28;20037;-54
2022/04/29 12:02:46;;;;;;;3.55;1.38;;;;;;;19.73;33.58;100724.00;5023180;28;20046;-53
2022/04/29 12:05:32;;;;;;;3.42;1.42;;;;;;;20.43;33.53;100713.44;5020806;28;20057;-53
2022/04/29 12:08:19;;;;;;;2.20;1.42;;;;;;;20.23;34.17;100723.28;5038501;28;20061;-53
2022/04/29 12:11:08;;;;;;;3.13;1.65;;;;;;;20.13;31.90;100718.53;5021739;28;20049;-54
2022/04/29 12:13:52;;;;;;;6.40;2.50;;;;;;;20.01;33.00;100723.50;5025255;28;20049;-53
2022/04/29 12:16:46;;;;;;;2.22;1.73;;;;;;;20.05;31.66;100717.13;5024802;28;20121;-54
2022/04/29 12:19:31;;;;;;;2.50;1.55;;;;;;;19.66;32.15;100711.06;5024718;28;20856;-53
2022/04/29 12:22:28;;;;;;;3.35;1.45;;;;;;;19.48;32.08;100702.19;5024721;28;20080;-53
2022/04/29 12:25:33;;;;;;;2.75;1.55;;;;;;;19.80;32.81;100706.81;5022775;28;20107;-53
2022/04/29 12:28:22;;;;;;;3.20;1.88;;;;;;;19.43;31.46;100697.06;5025545;28;20045;-54
2022/04/29 12:37:23;;;;;;;3.53;2.08;;;;;;;19.50;32.87;100687.91;5024717;28;20055;-53
2022/04/29 12:40:11;;;;;;;2.38;1.83;;;;;;;19.68;31.73;100690.63;5026921;28;20053;-53
2022/04/29 12:43:13;;;;;;;2.83;1.92;;;;;;;19.68;30.61;100685.31;5039086;28;20049;-53
2022/04/29 12:45:58;;;;;;;2.85;2.00;;;;;;;19.99;30.98;100680.19;5031410;28;20044;-53
2022/04/29 12:48:53;;;;;;;4.80;1.48;;;;;;;19.84;31.43;100678.28;5033462;28;20510;-54
2022/04/29 12:51:38;;;;;;;2.50;1.38;;;;;;;19.52;31.03;100682.50;5023439;28;20077;-53
2022/04/29 12:54:25;;;;;;;2.28;1.85;;;;;;;19.49;31.88;100678.19;5030582;28;20049;-53
2022/04/29 12:57:10;;;;;;;3.00;1.55;;;;;;;19.31;31.99;100664.00;5032239;28;20053;-53
2022/04/29 13:00:00;;;;;;;2.80;1.75;;;;;;;19.33;32.98;100675.41;5029831;28;20057;-53
2022/04/29 13:02:44;;;;;;;2.58;1.65;;;;;;;19.02;32.36;100669.84;5032612;28;20116;-53
2022/04/29 13:05:30;;;;;;;5.38;3.78;;;;;;;19.33;31.51;100662.13;5029930;28;20444;-55
2022/04/29 13:08:15;;;;;;;3.50;2.10;;;;;;;19.55;31.71;100647.81;5023745;28;20080;-54
2022/04/29 13:11:03;;;;;;;3.00;1.92;;;;;;;19.53;32.09;100660.28;5031701;28;20203;-54
2022/04/29 13:13:51;;;;;;;7.85;2.08;;;;;;;19.21;32.68;100652.09;5030124;28;20132;-53
2022/04/29 13:16:38;;;;;;;3.85;1.65;;;;;;;19.11;32.46;100650.81;5020956;28;20046;-54
2022/04/29 13:19:22;;;;;;;4.70;2.58;;;;;;;18.99;32.62;100646.09;5030144;28;20061;-54
2022/04/29 13:22:07;;;;;;;2.08;1.60;;;;;;;19.16;33.79;100654.09;5027015;28;20126;-53
2022/04/29 13:24:51;;;;;;;5.13;4.60;;;;;;;19.33;32.96;100648.84;5040022;28;20045;-54
2022/04/29 13:27:35;;;;;;;31.10;16.60;;;;;;;19.36;32.43;100631.91;5021557;28;20374;-54
2022/04/29 13:30:20;;;;;;;17.67;9.68;;;;;;;19.34;31.94;100641.75;5025287;28;20053;-54
2022/04/29 13:33:05;;;;;;;48.92;26.20;;;;;;;19.49;31.55;100632.16;5025609;28;20048;-55
2022/04/29 13:35:50;;;;;;;16.48;8.70;;;;;;;19.58;32.23;100631.72;5025669;28;20053;-54
2022/04/29 13:38:35;;;;;;;101.70;60.72;;;;;;;19.16;31.59;100627.56;5025362;28;20069;-55
2022/04/29 13:41:20;;;;;;;7.45;3.55;;;;;;;18.92;32.04;100638.41;5036287;28;20053;-56